Baltimore, Maryland
Current Conditions -  °F | °C
As of 3:54 AM on Sunday 23 Nov 2014 (Local Time) from KBWI Reporting Station
Scattered Clouds Scattered Clouds  
Wind Chill: 39°   Ceiling: Unl
Heat Index: 43°   Visibility: 10mi
Dew Point: 18°   Wind: 6mph
Humidity: 37%   Direction: 220°SW
Pressure: 30.19"   Gusts: NA
Location:  39.29°N, 76.61°W
Report Text: KBWI 230854Z 22005KT 10SM FEW095 SCT200 06/M08 A3019 RMK AO2 SLP222 T00611078 58013
Loading
Personal Weather Stations






























Interactive Weather Map New forecast layout! Learn more

10-Day Weather Forecast

Advertisements
Track Severe Weather on mobile